Time;durP1;ratioP1;P1;durP2;ratioP2;P2;SDS_P1;SDS_P2;PMS_P1;PMS_P2;Temp;Humidity;BMP_temperature;BMP_pressure;BME280_temperature;BME280_humidity;BME280_pressure;Samples;Min_cycle;Max_cycle;Signal;HPM_P1;HPM_P2
2022/04/29 00:00:34;;;;;;;;;;;12.50;99.90;;;;;;5129755;27;19912;-83
2022/04/29 00:03:02;;;;;;;;;;;12.50;99.90;;;;;;5126239;27;19915;-83
2022/04/29 00:05:28;;;;;;;;;;;12.40;99.90;;;;;;5135561;27;19937;-84
2022/04/29 00:07:53;;;;;;;;;;;12.40;99.90;;;;;;5130282;27;19947;-84
2022/04/29 00:10:19;;;;;;;;;;;12.40;99.90;;;;;;5132313;27;20000;-84
2022/04/29 00:12:46;;;;;;;;;;;12.40;99.90;;;;;;5129249;27;20386;-84
2022/04/29 00:15:12;;;;;;;;;;;12.30;99.90;;;;;;5136426;27;19912;-84
2022/04/29 00:17:38;;;;;;;;;;;12.30;99.90;;;;;;5136167;27;19908;-84
2022/04/29 00:20:04;;;;;;;;;;;12.30;99.90;;;;;;5114979;27;19912;-84
2022/04/29 00:22:30;;;;;;;;;;;12.30;99.90;;;;;;5129012;27;19908;-84
2022/04/29 00:24:55;;;;;;;;;;;12.30;99.90;;;;;;5120017;27;19923;-84
2022/04/29 00:27:21;;;;;;;;;;;12.20;99.90;;;;;;5129730;27;19967;-84
2022/04/29 00:29:46;;;;;;;;;;;12.20;99.90;;;;;;5111537;27;19918;-84
2022/04/29 00:32:12;;;;;;;;;;;12.20;99.90;;;;;;5138922;27;19935;-84
2022/04/29 00:34:37;;;;;;;;;;;12.20;99.90;;;;;;5136718;27;19915;-84
2022/04/29 00:37:03;;;;;;;;;;;12.20;99.90;;;;;;5134686;27;19916;-83
2022/04/29 00:39:29;;;;;;;;;;;12.20;99.90;;;;;;5128836;27;19961;-84
2022/04/29 00:41:54;;;;;;;;;;;12.10;99.90;;;;;;5134863;27;19912;-84
2022/04/29 00:44:20;;;;;;;;;;;12.10;99.90;;;;;;5128894;27;19911;-83
2022/04/29 00:46:46;;;;;;;;;;;12.10;99.90;;;;;;5134321;27;19919;-83
2022/04/29 00:49:13;;;;;;;;;;;12.10;99.90;;;;;;5110215;28;19912;-83
2022/04/29 00:51:40;;;;;;;;;;;12.10;99.90;;;;;;5118592;27;19915;-83
2022/04/29 00:54:08;;;;;;;;;;;12.10;99.90;;;;;;5114929;27;19994;-83
2022/04/29 00:56:36;;;;;;;;;;;12.00;99.90;;;;;;5132410;27;19953;-83
2022/04/29 00:59:02;;;;;;;;;;;12.00;99.90;;;;;;5126618;27;19930;-83
2022/04/29 01:01:29;;;;;;;;;;;12.00;99.90;;;;;;5111705;27;19999;-83
2022/04/29 01:03:55;;;;;;;;;;;11.90;99.90;;;;;;5132423;27;19915;-83
2022/04/29 01:06:21;;;;;;;;;;;11.90;99.90;;;;;;5130533;27;20011;-83
2022/04/29 01:08:46;;;;;;;;;;;11.90;99.90;;;;;;5126831;27;19984;-83
2022/04/29 01:11:12;;;;;;;;;;;11.80;99.90;;;;;;5136653;27;20109;-83
2022/04/29 01:13:37;;;;;;;;;;;11.70;99.90;;;;;;5142095;27;19994;-83
2022/04/29 01:16:06;;;;;;;;;;;11.60;99.90;;;;;;5136947;27;19911;-82
2022/04/29 01:18:31;;;;;;;;;;;11.50;99.90;;;;;;5137877;27;19911;-83
2022/04/29 01:21:05;;;;;;;;;;;11.50;99.90;;;;;;5112871;27;19912;-83
2022/04/29 01:23:32;;;;;;;;;;;11.40;99.90;;;;;;5135650;27;19911;-82
2022/04/29 01:25:57;;;;;;;;;;;11.30;99.90;;;;;;5111715;27;19915;-83
2022/04/29 01:28:24;;;;;;;;;;;11.30;99.90;;;;;;5134530;27;20382;-83
2022/04/29 01:30:52;;;;;;;;;;;11.30;99.90;;;;;;5139452;27;19911;-83
2022/04/29 01:33:18;;;;;;;;;;;11.20;99.90;;;;;;5116816;27;19911;-83
2022/04/29 01:35:44;;;;;;;;;;;11.20;99.90;;;;;;5135092;27;19915;-83
2022/04/29 01:38:10;;;;;;;;;;;11.10;99.90;;;;;;5110757;27;19918;-83
2022/04/29 01:40:37;;;;;;;;;;;11.10;99.90;;;;;;5131612;27;19912;-83
2022/04/29 01:43:03;;;;;;;;;;;11.00;99.90;;;;;;5133866;27;19926;-83
2022/04/29 01:45:29;;;;;;;;;;;10.90;99.90;;;;;;5135797;27;19943;-83
2022/04/29 01:47:54;;;;;;;;;;;10.90;99.90;;;;;;5133156;27;19915;-82
2022/04/29 01:50:19;;;;;;;;;;;10.90;1.00;;;;;;5135960;27;19912;-83
2022/04/29 01:52:45;;;;;;;;;;;10.90;1.00;;;;;;5140436;27;19912;-83
2022/04/29 01:55:10;;;;;;;;;;;10.90;1.00;;;;;;5140857;27;19911;-83
2022/04/29 01:57:36;;;;;;;;;;;10.90;1.00;;;;;;5138335;27;19922;-83
2022/04/29 02:00:06;;;;;;;;;;;10.90;1.00;;;;;;5141184;27;19915;-83
2022/04/29 02:02:31;;;;;;;;;;;10.80;1.00;;;;;;5113079;27;19937;-83
2022/04/29 02:04:57;;;;;;;;;;;10.80;1.00;;;;;;5133552;27;20010;-83
2022/04/29 02:07:22;;;;;;;;;;;10.80;1.00;;;;;;5131388;27;19943;-83
2022/04/29 02:09:48;;;;;;;;;;;10.80;1.00;;;;;;5132573;27;19908;-83
2022/04/29 02:12:15;;;;;;;;;;;10.80;1.00;;;;;;5136180;27;20453;-83
2022/04/29 02:14:42;;;;;;;;;;;10.80;1.00;;;;;;5138906;27;19907;-82
2022/04/29 02:17:08;;;;;;;;;;;10.70;1.00;;;;;;5133776;27;19918;-83
2022/04/29 02:19:34;;;;;;;;;;;10.70;1.00;;;;;;5138964;27;19950;-83
2022/04/29 02:22:00;;;;;;;;;;;10.70;1.00;;;;;;5139035;27;19912;-83
2022/04/29 02:24:26;;;;;;;;;;;10.70;1.00;;;;;;5135557;27;20496;-83
2022/04/29 02:26:52;;;;;;;;;;;10.80;1.00;;;;;;5134690;27;19921;-83
2022/04/29 02:29:17;;;;;;;;;;;10.70;1.00;;;;;;5133853;27;20446;-83
2022/04/29 02:31:43;;;;;;;;;;;10.70;1.00;;;;;;5135898;27;19908;-83
2022/04/29 02:34:08;;;;;;;;;;;10.70;1.00;;;;;;5134793;27;19933;-82
2022/04/29 02:36:34;;;;;;;;;;;10.70;1.00;;;;;;5112857;28;19920;-83
2022/04/29 02:39:03;;;;;;;;;;;10.80;1.00;;;;;;5115246;27;19911;-83
2022/04/29 02:41:28;;;;;;;;;;;10.80;1.00;;;;;;5120968;28;19968;-82
2022/04/29 02:43:54;;;;;;;;;;;10.80;1.00;;;;;;5134568;27;19911;-82
2022/04/29 02:46:19;;;;;;;;;;;10.90;1.00;;;;;;5135512;27;19919;-83
2022/04/29 02:48:47;;;;;;;;;;;10.90;1.00;;;;;;5141279;27;19943;-83
2022/04/29 02:51:13;;;;;;;;;;;10.90;1.00;;;;;;5133431;27;19934;-82
2022/04/29 02:53:42;;;;;;;;;;;10.90;1.00;;;;;;5140182;27;19912;-83
2022/04/29 02:56:08;;;;;;;;;;;10.90;1.00;;;;;;5111650;27;19915;-83
2022/04/29 02:58:33;;;;;;;;;;;10.90;1.00;;;;;;5139909;27;19933;-83
2022/04/29 03:00:59;;;;;;;;;;;10.90;1.00;;;;;;5117456;28;19911;-83
2022/04/29 03:03:24;;;;;;;;;;;10.80;1.00;;;;;;5120935;28;19918;-83
2022/04/29 03:05:50;;;;;;;;;;;10.90;1.00;;;;;;5110278;27;19927;-82
2022/04/29 03:08:15;;;;;;;;;;;10.90;1.00;;;;;;5134888;27;20444;-83
2022/04/29 03:10:41;;;;;;;;;;;10.90;1.00;;;;;;5140038;27;19956;-83
2022/04/29 03:13:06;;;;;;;;;;;10.80;1.00;;;;;;5116503;27;20365;-83
2022/04/29 03:15:33;;;;;;;;;;;10.80;1.00;;;;;;5136002;27;19918;-83
2022/04/29 03:20:46;;;;;;;;;;;10.80;25.70;;;;;;5137539;27;19939;-83
2022/04/29 03:23:12;;;;;;;;;;;10.80;43.80;;;;;;5115406;27;19979;-83
2022/04/29 03:25:38;;;;;;;;;;;10.80;62.50;;;;;;5143381;27;19922;-83
2022/04/29 03:28:06;;;;;;;;;;;10.80;99.90;;;;;;5137782;27;19911;-83
2022/04/29 03:30:32;;;;;;;;;;;10.70;99.90;;;;;;5145227;27;20379;-83
2022/04/29 03:32:58;;;;;;;;;;;10.60;99.90;;;;;;5142464;27;19964;-83
2022/04/29 03:35:24;;;;;;;;;;;10.60;99.90;;;;;;5117912;27;19912;-83
2022/04/29 03:37:52;;;;;;;;;;;10.40;1.00;;;;;;5139727;27;19919;-83
2022/04/29 03:40:20;;;;;;;;;;;10.30;1.00;;;;;;5140190;27;19912;-83
2022/04/29 03:42:46;;;;;;;;;;;10.20;60.30;;;;;;5139511;27;19920;-83
2022/04/29 03:45:12;;;;;;;;;;;10.20;1.00;;;;;;5140149;27;19923;-82
2022/04/29 03:47:37;;;;;;;;;;;10.00;1.00;;;;;;5140328;27;19979;-82
2022/04/29 03:50:03;;;;;;;;;;;10.10;1.00;;;;;;5113117;27;19914;-82
2022/04/29 03:52:28;;;;;;;;;;;10.00;1.00;;;;;;5143997;27;19919;-83
2022/04/29 03:54:56;;;;;;;;;;;10.00;1.00;;;;;;5119718;27;19916;-83
2022/04/29 03:57:21;;;;;;;;;;;10.00;62.30;;;;;;5138503;27;19947;-82
2022/04/29 03:59:48;;;;;;;;;;;10.00;99.90;;;;;;5133412;27;19930;-83
2022/04/29 04:02:14;;;;;;;;;;;10.00;99.90;;;;;;5136880;27;20354;-83
2022/04/29 04:04:39;;;;;;;;;;;10.00;99.90;;;;;;5143660;27;19907;-82
2022/04/29 04:07:04;;;;;;;;;;;10.00;99.90;;;;;;5121225;27;19918;-83
2022/04/29 04:09:30;;;;;;;;;;;9.90;99.90;;;;;;5139186;27;19963;-82
2022/04/29 04:11:56;;;;;;;;;;;9.90;99.90;;;;;;5140347;27;19911;-83
2022/04/29 04:14:21;;;;;;;;;;;9.90;99.90;;;;;;5143604;27;19911;-83
2022/04/29 04:16:47;;;;;;;;;;;9.80;99.90;;;;;;5135262;27;19918;-83
2022/04/29 04:19:13;;;;;;;;;;;9.80;99.90;;;;;;5131228;27;19998;-83
2022/04/29 04:21:39;;;;;;;;;;;9.70;1.00;;;;;;5140563;27;20382;-82
2022/04/29 04:24:05;;;;;;;;;;;9.70;1.00;;;;;;5142916;27;19933;-82
2022/04/29 04:26:31;;;;;;;;;;;9.70;1.00;;;;;;5134959;27;19979;-83
2022/04/29 04:28:57;;;;;;;;;;;9.70;1.00;;;;;;5134589;27;20379;-82
2022/04/29 04:31:24;;;;;;;;;;;9.80;1.00;;;;;;5132104;27;19919;-82
2022/04/29 04:33:50;;;;;;;;;;;9.80;1.00;;;;;;5135944;27;19911;-83
2022/04/29 04:36:18;;;;;;;;;;;9.80;1.00;;;;;;5134058;27;19921;-83
2022/04/29 04:38:45;;;;;;;;;;;9.80;1.00;;;;;;5137718;27;19946;-83
2022/04/29 04:41:13;;;;;;;;;;;9.90;1.00;;;;;;5138931;27;19915;-83
2022/04/29 04:43:38;;;;;;;;;;;9.90;99.90;;;;;;5126952;27;19933;-84
2022/04/29 04:46:06;;;;;;;;;;;9.90;99.90;;;;;;5126603;27;19923;-83
2022/04/29 04:48:31;;;;;;;;;;;10.00;99.90;;;;;;5142878;27;19967;-84
2022/04/29 04:51:01;;;;;;;;;;;10.00;99.90;;;;;;5144466;27;19911;-83
2022/04/29 04:53:36;;;;;;;;;;;9.90;1.00;;;;;;5125851;27;19923;-82
2022/04/29 04:56:04;;;;;;;;;;;10.00;1.00;;;;;;5136890;27;19919;-82
2022/04/29 04:58:32;;;;;;;;;;;10.00;1.00;;;;;;5112769;28;19922;-83
2022/04/29 05:00:58;;;;;;;;;;;10.00;1.00;;;;;;5134530;27;19912;-84
2022/04/29 05:03:27;;;;;;;;;;;10.00;1.00;;;;;;5112980;28;19908;-83
2022/04/29 05:06:00;;;;;;;;;;;10.10;1.00;;;;;;5134539;27;19954;-84
2022/04/29 05:08:25;;;;;;;;;;;10.20;1.00;;;;;;5133824;27;19959;-83
2022/04/29 05:10:51;;;;;;;;;;;10.40;99.90;;;;;;5138411;27;20416;-83
2022/04/29 05:13:16;;;;;;;;;;;10.40;1.00;;;;;;5138062;27;19908;-83
2022/04/29 05:15:45;;;;;;;;;;;10.60;1.00;;;;;;5139539;27;19922;-82
2022/04/29 05:18:10;;;;;;;;;;;10.70;99.90;;;;;;5137305;27;19908;-83
2022/04/29 05:20:38;;;;;;;;;;;10.80;99.90;;;;;;5138162;27;19919;-83
2022/04/29 05:23:10;;;;;;;;;;;10.80;99.90;;;;;;5138892;27;20260;-83
2022/04/29 05:25:38;;;;;;;;;;;10.90;99.90;;;;;;5133296;27;20405;-83
2022/04/29 05:28:07;;;;;;;;;;;10.90;99.90;;;;;;5135260;27;19908;-84
2022/04/29 05:30:39;;;;;;;;;;;11.00;99.90;;;;;;5132890;27;19911;-86
2022/04/29 05:33:10;;;;;;;;;;;11.10;99.90;;;;;;5138309;27;20154;-84
2022/04/29 05:35:48;;;;;;;;;;;11.30;1.00;;;;;;5129654;27;20011;-80
2022/04/29 05:38:19;;;;;;;;;;;11.30;1.00;;;;;;5118792;28;20363;-79
2022/04/29 05:43:32;;;;;;;;;;;11.60;1.00;;;;;;5128783;27;19919;-79
2022/04/29 05:45:57;;;;;;;;;;;11.70;1.00;;;;;;5107805;28;19916;-83
2022/04/29 05:48:23;;;;;;;;;;;11.80;1.00;;;;;;5131907;27;19915;-82
2022/04/29 05:50:48;;;;;;;;;;;11.90;99.90;;;;;;5128368;27;19911;-82
2022/04/29 05:53:15;;;;;;;;;;;12.00;99.90;;;;;;5124632;27;19912;-84
2022/04/29 05:55:41;;;;;;;;;;;12.10;99.90;;;;;;5124815;27;20275;-84
2022/04/29 05:58:06;;;;;;;;;;;12.20;99.90;;;;;;5103135;27;19911;-80
2022/04/29 06:00:32;;;;;;;;;;;12.30;99.90;;;;;;5107347;28;20441;-83
2022/04/29 06:02:57;;;;;;;;;;;12.40;99.90;;;;;;5122696;27;20515;-81
2022/04/29 06:05:24;;;;;;;;;;;12.40;99.90;;;;;;5120522;27;19916;-82
2022/04/29 06:07:49;;;;;;;;;;;12.30;99.90;;;;;;5121033;27;19912;-81
2022/04/29 06:10:15;;;;;;;;;;;12.30;99.90;;;;;;5123534;27;20299;-80
2022/04/29 06:12:41;;;;;;;;;;;12.30;99.90;;;;;;5112906;27;19911;-78
2022/04/29 06:15:07;;;;;;;;;;;12.30;99.90;;;;;;5122389;27;19915;-80
2022/04/29 06:17:32;;;;;;;;;;;12.40;94.60;;;;;;5122266;27;20284;-80
2022/04/29 06:19:58;;;;;;;;;;;12.30;41.50;;;;;;5118818;27;19912;-83
2022/04/29 06:22:23;;;;;;;;;;;12.30;28.50;;;;;;5124429;27;19977;-80
2022/04/29 06:24:50;;;;;;;;;;;12.40;30.50;;;;;;5128708;27;19912;-79
2022/04/29 06:27:15;;;;;;;;;;;12.50;1.00;;;;;;5126042;27;19927;-79
2022/04/29 06:29:41;;;;;;;;;;;12.60;1.00;;;;;;5126487;27;19918;-80
2022/04/29 06:32:06;;;;;;;;;;;12.80;1.00;;;;;;5122983;27;19918;-81
2022/04/29 06:34:32;;;;;;;;;;;12.90;1.00;;;;;;5125918;27;19912;-80
2022/04/29 06:36:57;;;;;;;;;;;13.00;1.00;;;;;;5124035;28;19923;-79
2022/04/29 06:39:23;;;;;;;;;;;13.10;1.00;;;;;;5122787;28;19915;-83
2022/04/29 06:41:48;;;;;;;;;;;13.20;1.00;;;;;;5123622;28;20056;-80
2022/04/29 06:44:13;;;;;;;;;;;13.30;1.00;;;;;;5122235;28;20386;-82
2022/04/29 06:46:39;;;;;;;;;;;13.30;1.00;;;;;;5126757;28;20312;-79
2022/04/29 06:49:04;;;;;;;;;;;13.50;1.00;;;;;;5127496;28;19969;-79
2022/04/29 06:51:30;;;;;;;;;;;13.60;1.00;;;;;;5105564;28;19911;-81
2022/04/29 06:53:55;;;;;;;;;;;13.60;1.00;;;;;;5124530;28;19919;-77
2022/04/29 06:56:21;;;;;;;;;;;13.60;1.00;;;;;;5122941;28;19983;-79
2022/04/29 06:58:46;;;;;;;;;;;13.40;1.00;;;;;;5118711;27;19934;-81
2022/04/29 07:01:12;;;;;;;;;;;13.40;1.00;;;;;;5140896;27;19912;-82
2022/04/29 07:03:39;;;;;;;;;;;13.60;1.00;;;;;;5112865;27;19915;-80
2022/04/29 07:06:06;;;;;;;;;;;13.60;1.00;;;;;;5117962;27;19943;-80
2022/04/29 07:08:31;;;;;;;;;;;13.70;1.00;;;;;;5150528;22;19912;-84
2022/04/29 07:10:57;;;;;;;;;;;13.60;1.00;;;;;;5063276;28;19923;-85
2022/04/29 07:13:22;;;;;;;;;;;13.60;1.00;;;;;;5069942;28;19913;-79
2022/04/29 07:15:48;;;;;;;;;;;13.70;1.00;;;;;;5053482;28;19920;-84
2022/04/29 07:18:14;;;;;;;;;;;13.80;1.00;;;;;;5066738;28;19951;-84
2022/04/29 07:20:39;;;;;;;;;;;13.90;99.90;;;;;;5054546;28;19912;-83
2022/04/29 07:23:05;;;;;;;;;;;13.90;99.90;;;;;;5052963;28;19972;-86
2022/04/29 07:25:30;;;;;;;;;;;14.00;99.90;;;;;;5036156;28;19917;-85
2022/04/29 07:27:56;;;;;;;;;;;14.00;99.90;;;;;;5039152;28;19914;-83
2022/04/29 07:30:21;;;;;;;;;;;14.10;99.90;;;;;;5031316;28;19928;-83
2022/04/29 07:32:47;;;;;;;;;;;14.30;99.90;;;;;;5052862;28;19968;-84
2022/04/29 07:43:25;;;;;;;;;;;14.80;99.90;;;;;;5049777;28;19944;-84
2022/04/29 07:45:51;;;;;;;;;;;15.00;99.90;;;;;;5054641;28;19920;-84
2022/04/29 07:48:17;;;;;;;;;;;15.10;99.90;;;;;;5029600;28;19913;-85
2022/04/29 07:50:42;;;;;;;;;;;15.20;99.90;;;;;;5054023;28;19913;-85
2022/04/29 07:53:08;;;;;;;;;;;15.40;99.90;;;;;;5056075;28;19913;-85
2022/04/29 07:55:35;;;;;;;;;;;15.60;99.90;;;;;;5057559;28;19932;-85
2022/04/29 07:58:01;;;;;;;;;;;15.80;99.90;;;;;;5052461;28;19917;-84
2022/04/29 08:00:27;;;;;;;;;;;15.80;99.90;;;;;;5057612;28;19913;-84
2022/04/29 08:02:52;;;;;;;;;;;16.00;99.90;;;;;;5072229;28;20285;-85
2022/04/29 08:05:18;;;;;;;;;;;16.10;99.90;;;;;;5072913;28;19912;-84
2022/04/29 08:07:43;;;;;;;;;;;16.10;99.90;;;;;;5063902;28;19905;-83
2022/04/29 08:10:09;;;;;;;;;;;16.00;99.90;;;;;;5034601;28;19917;-83
2022/04/29 08:12:36;;;;;;;;;;;16.10;99.90;;;;;;5035987;28;19949;-82
2022/04/29 08:15:01;;;;;;;;;;;16.20;99.90;;;;;;5054348;28;20468;-83
2022/04/29 08:17:26;;;;;;;;;;;16.30;99.90;;;;;;5053682;28;19913;-84
2022/04/29 08:19:52;;;;;;;;;;;16.30;99.90;;;;;;5036787;28;20369;-84
2022/04/29 08:22:18;;;;;;;;;;;16.40;99.90;;;;;;5054112;28;19909;-83
2022/04/29 08:24:44;;;;;;;;;;;16.40;99.90;;;;;;5055074;28;19920;-84
2022/04/29 08:27:10;;;;;;;;;;;16.40;99.90;;;;;;5053367;28;19909;-83
2022/04/29 08:29:36;;;;;;;;;;;16.40;99.90;;;;;;5030591;28;20180;-83
2022/04/29 08:32:05;;;;;;;;;;;16.40;99.90;;;;;;5054965;28;19910;-83
2022/04/29 08:34:31;;;;;;;;;;;16.60;99.90;;;;;;5071702;28;20228;-83
2022/04/29 08:36:56;;;;;;;;;;;17.00;99.90;;;;;;5053611;28;20024;-84
2022/04/29 08:39:22;;;;;;;;;;;17.20;99.90;;;;;;5054437;28;19913;-83
2022/04/29 08:41:49;;;;;;;;;;;17.40;99.90;;;;;;5053121;28;19951;-84
2022/04/29 08:44:16;;;;;;;;;;;17.50;99.90;;;;;;5036525;28;19920;-84
2022/04/29 08:46:43;;;;;;;;;;;17.70;99.90;;;;;;5035420;28;19923;-83
2022/04/29 08:49:09;;;;;;;;;;;18.10;99.90;;;;;;5036615;28;19909;-83
2022/04/29 08:51:37;;;;;;;;;;;18.50;99.90;;;;;;5035154;28;19914;-85
2022/04/29 08:54:04;;;;;;;;;;;19.10;99.90;;;;;;5058239;28;19920;-84
2022/04/29 08:59:18;;;;;;;;;;;20.90;99.90;;;;;;5054848;28;19919;-83
2022/04/29 09:01:44;;;;;;;;;;;22.20;99.90;;;;;;5061668;28;19933;-84
2022/04/29 09:04:09;;;;;;;;;;;22.70;99.90;;;;;;5062046;28;19935;-83
2022/04/29 09:06:45;;;;;;;;;;;23.50;99.90;;;;;;5052878;28;19902;-84
2022/04/29 09:09:10;;;;;;;;;;;24.20;99.90;;;;;;5055210;28;19924;-84
2022/04/29 09:11:36;;;;;;;;;;;24.60;99.90;;;;;;5043823;28;19913;-84
2022/04/29 09:14:20;;;;;;;;;;;24.00;99.90;;;;;;5061361;28;19939;-83
2022/04/29 09:16:48;;;;;;;;;;;23.60;99.90;;;;;;5060003;28;19996;-85
2022/04/29 09:19:30;;;;;;;;;;;23.40;99.90;;;;;;5059786;28;19913;-84
2022/04/29 09:22:07;;;;;;;;;;;23.40;99.90;;;;;;5057437;28;19921;-83
2022/04/29 09:24:32;;;;;;;;;;;23.40;99.90;;;;;;5058610;28;19913;-83
2022/04/29 09:26:59;;;;;;;;;;;23.40;99.90;;;;;;5058588;28;19921;-84
2022/04/29 09:29:25;;;;;;;;;;;23.50;99.90;;;;;;5063729;28;19913;-83
2022/04/29 09:31:53;;;;;;;;;;;24.00;99.90;;;;;;5032996;28;19941;-83
2022/04/29 09:34:18;;;;;;;;;;;24.80;99.90;;;;;;5063198;28;19963;-84
2022/04/29 09:36:44;;;;;;;;;;;26.00;99.90;;;;;;5038161;28;19917;-83
2022/04/29 09:39:27;;;;;;;;;;;26.80;99.90;;;;;;5062036;28;19924;-82
2022/04/29 09:41:54;;;;;;;;;;;27.00;99.90;;;;;;5061104;28;19914;-84
2022/04/29 09:44:46;;;;;;;;;;;26.80;99.90;;;;;;5059317;28;19924;-83
2022/04/29 09:47:13;;;;;;;;;;;27.20;99.90;;;;;;5033953;28;19916;-83
2022/04/29 09:49:38;;;;;;;;;;;27.00;99.90;;;;;;5061134;28;19931;-84
2022/04/29 09:52:04;;;;;;;;;;;26.70;99.90;;;;;;5060913;28;19975;-83
2022/04/29 09:54:35;;;;;;;;;;;26.80;99.90;;;;;;5062498;28;20024;-84
2022/04/29 09:57:14;;;;;;;;;;;26.30;99.90;;;;;;5064111;28;19952;-83
2022/04/29 09:59:44;;;;;;;;;;;25.60;99.90;;;;;;5054148;28;19968;-84
2022/04/29 10:02:10;;;;;;;;;;;25.40;99.90;;;;;;5043142;28;19919;-83
2022/04/29 10:04:37;;;;;;;;;;;25.40;99.90;;;;;;5054757;28;19984;-83
2022/04/29 10:07:07;;;;;;;;;;;25.20;99.90;;;;;;5054181;28;20442;-84
2022/04/29 10:09:33;;;;;;;;;;;24.90;99.90;;;;;;5042316;28;19916;-84
2022/04/29 10:12:00;;;;;;;;;;;25.10;99.90;;;;;;5062263;28;19959;-84
2022/04/29 10:14:27;;;;;;;;;;;24.90;99.90;;;;;;5051137;28;19901;-83
2022/04/29 10:22:24;;;;;;;;;;;25.40;99.90;;;;;;5057269;28;19920;-84
2022/04/29 10:24:50;;;;;;;;;;;25.40;99.90;;;;;;5052503;28;19921;-83
2022/04/29 10:27:16;;;;;;;;;;;25.40;99.90;;;;;;5052580;28;19920;-84
2022/04/29 10:29:42;;;;;;;;;;;25.60;99.90;;;;;;5053754;28;19976;-84
2022/04/29 10:32:09;;;;;;;;;;;25.80;99.90;;;;;;5054353;28;20281;-83
2022/04/29 10:34:35;;;;;;;;;;;25.80;99.90;;;;;;5052253;28;19924;-84
2022/04/29 10:37:01;;;;;;;;;;;25.70;99.90;;;;;;5054687;28;19917;-83
2022/04/29 10:39:26;;;;;;;;;;;26.00;99.90;;;;;;5056917;28;19972;-84
2022/04/29 10:42:03;;;;;;;;;;;26.70;99.90;;;;;;5045440;28;19913;-83
2022/04/29 10:44:29;;;;;;;;;;;27.00;99.90;;;;;;5052400;28;19936;-84
2022/04/29 10:46:54;;;;;;;;;;;26.90;99.90;;;;;;5047776;28;19917;-83
2022/04/29 10:49:20;;;;;;;;;;;27.20;99.90;;;;;;5049724;28;19985;-84
2022/04/29 10:51:48;;;;;;;;;;;26.80;99.90;;;;;;5057645;28;19920;-84
2022/04/29 10:54:14;;;;;;;;;;;26.30;99.90;;;;;;5045514;28;19976;-83
2022/04/29 10:56:39;;;;;;;;;;;26.00;99.90;;;;;;5036676;28;19972;-83
2022/04/29 10:59:05;;;;;;;;;;;25.70;99.90;;;;;;5050718;28;19924;-84
2022/04/29 11:01:33;;;;;;;;;;;25.60;99.90;;;;;;5052943;28;19917;-84
2022/04/29 11:04:14;;;;;;;;;;;25.20;99.90;;;;;;5052412;28;19928;-83
2022/04/29 11:06:41;;;;;;;;;;;25.00;99.90;;;;;;5060269;28;19925;-83
2022/04/29 11:09:25;;;;;;;;;;;25.20;99.90;;;;;;5060947;28;19984;-84
2022/04/29 11:11:51;;;;;;;;;;;25.70;99.90;;;;;;5049137;28;19909;-84
2022/04/29 11:14:16;;;;;;;;;;;25.40;99.90;;;;;;5049549;28;20004;-84
2022/04/29 11:16:55;;;;;;;;;;;25.60;99.90;;;;;;5049347;28;19913;-83
2022/04/29 11:19:27;;;;;;;;;;;25.70;99.90;;;;;;5042824;28;19940;-83
2022/04/29 11:24:44;;;;;;;;;;;26.20;99.90;;;;;;5044598;28;20301;-84
2022/04/29 11:27:10;;;;;;;;;;;26.20;99.90;;;;;;5044306;28;19921;-83
2022/04/29 11:29:45;;;;;;;;;;;26.40;99.90;;;;;;5048706;28;19920;-84
2022/04/29 11:32:11;;;;;;;;;;;26.10;99.90;;;;;;5042673;28;19919;-83
2022/04/29 11:34:57;;;;;;;;;;;26.30;99.90;;;;;;5031900;28;19913;-84
2022/04/29 11:37:23;;;;;;;;;;;25.70;99.90;;;;;;5053157;28;19944;-83
2022/04/29 11:39:49;;;;;;;;;;;24.90;99.90;;;;;;5062565;28;19915;-84
2022/04/29 11:42:16;;;;;;;;;;;24.90;99.90;;;;;;5050251;28;19913;-84
2022/04/29 11:44:43;;;;;;;;;;;25.10;99.90;;;;;;5048720;28;19936;-84
2022/04/29 11:47:08;;;;;;;;;;;25.10;99.90;;;;;;5051582;28;19986;-84
2022/04/29 11:49:34;;;;;;;;;;;25.20;99.90;;;;;;5041291;28;19936;-81
2022/04/29 11:52:18;;;;;;;;;;;25.00;99.90;;;;;;5034637;28;19963;-82
2022/04/29 11:54:53;;;;;;;;;;;24.60;99.90;;;;;;5035025;28;19913;-82
2022/04/29 11:57:22;;;;;;;;;;;24.10;99.90;;;;;;5030039;28;19998;-82
2022/04/29 11:59:48;;;;;;;;;;;23.50;99.90;;;;;;5035629;28;19921;-82
2022/04/29 12:02:16;;;;;;;;;;;23.30;99.90;;;;;;5034968;28;19969;-82
2022/04/29 12:04:53;;;;;;;;;;;23.20;99.90;;;;;;5034159;28;19917;-82
2022/04/29 12:07:19;;;;;;;;;;;23.10;99.90;;;;;;5021295;28;20017;-82
2022/04/29 12:09:44;;;;;;;;;;;22.90;99.90;;;;;;5044992;28;20289;-82
2022/04/29 12:12:22;;;;;;;;;;;22.70;99.90;;;;;;5030750;28;19946;-81
2022/04/29 12:14:47;;;;;;;;;;;22.60;99.90;;;;;;5035057;28;19976;-82
2022/04/29 12:17:15;;;;;;;;;;;22.40;99.90;;;;;;5032540;28;20393;-82
2022/04/29 12:19:41;;;;;;;;;;;22.40;99.90;;;;;;5033312;28;20278;-81
2022/04/29 12:22:09;;;;;;;;;;;22.50;99.90;;;;;;5020623;28;19913;-81
2022/04/29 12:24:44;;;;;;;;;;;22.40;99.90;;;;;;5015675;28;19913;-82
2022/04/29 12:27:10;;;;;;;;;;;22.30;99.90;;;;;;5033323;28;20011;-81
2022/04/29 12:29:39;;;;;;;;;;;22.10;99.90;;;;;;5017496;28;19914;-83
2022/04/29 12:35:24;;;;;;;;;;;21.60;99.90;;;;;;5033368;28;19970;-82
2022/04/29 12:37:51;;;;;;;;;;;21.30;99.90;;;;;;5033696;28;19916;-81
2022/04/29 12:40:25;;;;;;;;;;;21.20;99.90;;;;;;5035876;28;19940;-82
2022/04/29 12:42:50;;;;;;;;;;;21.20;99.90;;;;;;5037641;28;19920;-82
2022/04/29 12:45:21;;;;;;;;;;;21.20;99.90;;;;;;5028729;28;19917;-81
2022/04/29 12:47:53;;;;;;;;;;;21.20;99.90;;;;;;5014363;28;19956;-82
2022/04/29 12:50:19;;;;;;;;;;;21.10;99.90;;;;;;5040999;28;19913;-81
2022/04/29 12:52:58;;;;;;;;;;;21.20;99.90;;;;;;5037615;28;20336;-82
2022/04/29 12:55:24;;;;;;;;;;;21.30;99.90;;;;;;5041115;28;19913;-81
2022/04/29 12:57:50;;;;;;;;;;;21.40;99.90;;;;;;5033445;28;19917;-82
2022/04/29 13:00:25;;;;;;;;;;;21.40;99.90;;;;;;5028955;28;19967;-82
2022/04/29 13:03:04;;;;;;;;;;;21.40;99.90;;;;;;5048650;28;19912;-81
2022/04/29 13:05:30;;;;;;;;;;;21.30;99.90;;;;;;5030541;28;19979;-82
2022/04/29 13:07:55;;;;;;;;;;;21.30;99.90;;;;;;5031711;28;19918;-82
2022/04/29 13:10:21;;;;;;;;;;;21.40;99.90;;;;;;5043408;28;19921;-84
2022/04/29 13:12:47;;;;;;;;;;;21.40;99.90;;;;;;5051456;28;19920;-85
2022/04/29 13:15:12;;;;;;;;;;;21.40;99.90;;;;;;5032857;28;19924;-82
2022/04/29 13:17:38;;;;;;;;;;;21.40;99.90;;;;;;5049317;28;19897;-83
2022/04/29 13:20:05;;;;;;;;;;;21.50;99.90;;;;;;5035517;28;19920;-85
2022/04/29 13:22:30;;;;;;;;;;;21.40;99.90;;;;;;5050160;28;19920;-84
2022/04/29 13:24:58;;;;;;;;;;;21.50;99.90;;;;;;5050036;28;19972;-83
2022/04/29 13:27:23;;;;;;;;;;;21.60;99.90;;;;;;5052768;28;19935;-84
2022/04/29 13:29:49;;;;;;;;;;;21.60;99.90;;;;;;5048513;28;19909;-84
2022/04/29 13:32:14;;;;;;;;;;;21.50;99.90;;;;;;5065238;28;19909;-84
2022/04/29 13:34:40;;;;;;;;;;;21.40;99.90;;;;;;5058178;28;19927;-84
2022/04/29 13:37:05;;;;;;;;;;;21.40;99.90;;;;;;5050233;28;19913;-84
2022/04/29 13:39:31;;;;;;;;;;;21.50;99.90;;;;;;5055003;28;20500;-83
2022/04/29 13:41:56;;;;;;;;;;;21.50;99.90;;;;;;5050140;28;19921;-85
2022/04/29 13:44:21;;;;;;;;;;;21.60;99.90;;;;;;5057505;28;19913;-83
2022/04/29 13:46:47;;;;;;;;;;;21.70;99.90;;;;;;5051917;28;19952;-84
2022/04/29 13:49:12;;;;;;;;;;;21.80;99.90;;;;;;5049480;28;19936;-84
2022/04/29 13:51:38;;;;;;;;;;;22.00;99.90;;;;;;5047583;28;19913;-84
2022/04/29 13:54:03;;;;;;;;;;;22.10;99.90;;;;;;5051286;28;19939;-84
2022/04/29 13:56:29;;;;;;;;;;;22.20;99.90;;;;;;5048872;28;19949;-84
2022/04/29 13:58:56;;;;;;;;;;;22.20;99.90;;;;;;5047048;28;19918;-84
2022/04/29 14:01:21;;;;;;;;;;;22.10;99.90;;;;;;5051513;28;19920;-84
2022/04/29 14:03:47;;;;;;;;;;;22.10;99.90;;;;;;5059975;28;19936;-84
2022/04/29 14:06:13;;;;;;;;;;;22.10;99.90;;;;;;5047615;28;19917;-83
2022/04/29 14:08:38;;;;;;;;;;;22.10;99.90;;;;;;5047123;28;19913;-85
2022/04/29 14:11:04;;;;;;;;;;;22.00;99.90;;;;;;5030788;28;20015;-82
2022/04/29 14:13:29;;;;;;;;;;;22.00;99.90;;;;;;5049731;28;19909;-85
2022/04/29 14:15:55;;;;;;;;;;;22.10;99.90;;;;;;5030732;28;19917;-84
2022/04/29 14:18:20;;;;;;;;;;;22.10;99.90;;;;;;5050278;28;19916;-84
2022/04/29 14:20:46;;;;;;;;;;;22.10;99.90;;;;;;5048193;28;19921;-84
2022/04/29 14:23:12;;;;;;;;;;;22.00;99.90;;;;;;5043913;28;19971;-84
2022/04/29 14:25:37;;;;;;;;;;;22.00;99.90;;;;;;5044827;28;19911;-85
2022/04/29 14:28:03;;;;;;;;;;;21.80;99.90;;;;;;5049517;28;19939;-82
2022/04/29 14:30:28;;;;;;;;;;;21.90;99.90;;;;;;5048805;28;19920;-84
2022/04/29 14:32:54;;;;;;;;;;;21.90;99.90;;;;;;5057488;28;19945;-84
2022/04/29 14:35:19;;;;;;;;;;;22.00;99.90;;;;;;5051609;28;19913;-84
2022/04/29 14:37:45;;;;;;;;;;;22.00;99.90;;;;;;5034797;28;19919;-84
2022/04/29 14:40:11;;;;;;;;;;;22.10;99.90;;;;;;5048515;28;19953;-84
2022/04/29 14:42:37;;;;;;;;;;;22.30;99.90;;;;;;5048838;28;19956;-84
2022/04/29 14:45:03;;;;;;;;;;;22.40;99.90;;;;;;5050267;28;19927;-85
2022/04/29 14:47:29;;;;;;;;;;;22.50;99.90;;;;;;5048968;28;19928;-84